Time;durP1;ratioP1;P1;durP2;ratioP2;P2;SDS_P1;SDS_P2;PMS_P1;PMS_P2;Temp;Humidity;BMP_temperature;BMP_pressure;BME280_temperature;BME280_humidity;BME280_pressure;Samples;Min_cycle;Max_cycle;Signal;HPM_P1;HPM_P2
2023/12/10 00:00:16;;;;;;;13.73;6.00;;;;;;;-9.40;62.43;100723.22;4943598;29;20460;-56
2023/12/10 00:02:42;;;;;;;16.77;5.55;;;;;;;-9.32;62.50;100724.56;4949013;28;20066;-59
2023/12/10 00:05:08;;;;;;;16.67;5.82;;;;;;;-9.24;62.55;100728.41;4948985;29;20043;-60
2023/12/10 00:07:34;;;;;;;14.05;4.65;;;;;;;-9.25;61.82;100738.38;4950708;28;20050;-60
2023/12/10 00:10:00;;;;;;;10.35;5.70;;;;;;;-9.55;62.34;100687.03;4917449;29;20082;-57
2023/12/10 00:12:27;;;;;;;12.77;5.35;;;;;;;-9.19;62.16;100732.06;4950365;28;20050;-53
2023/12/10 00:14:54;;;;;;;11.88;5.45;;;;;;;-9.08;62.19;100725.16;4951295;28;20439;-56
2023/12/10 00:17:24;;;;;;;14.80;6.00;;;;;;;-9.05;62.78;100726.19;4939446;28;20497;-57
2023/12/10 00:19:50;;;;;;;20.40;6.25;;;;;;;-9.12;61.89;100709.00;4926484;29;20047;-54
2023/12/10 00:22:16;;;;;;;14.00;5.70;;;;;;;-9.10;62.50;100714.97;4935349;29;20070;-58
2023/12/10 00:24:44;;;;;;;12.40;5.50;;;;;;;-9.06;61.86;100711.91;4932615;29;20515;-57
2023/12/10 00:27:10;;;;;;;16.58;5.05;;;;;;;-9.25;61.98;100662.84;4949925;28;20083;-57
2023/12/10 00:29:37;;;;;;;18.73;7.22;;;;;;;-9.05;62.27;100693.47;4952455;28;20043;-58
2023/12/10 00:32:04;;;;;;;18.95;5.57;;;;;;;-8.93;62.37;100703.41;4933158;28;20070;-58
2023/12/10 00:34:30;;;;;;;19.27;5.80;;;;;;;-8.90;62.04;100706.13;4949060;29;20090;-53
2023/12/10 00:36:56;;;;;;;14.27;5.25;;;;;;;-9.28;62.60;100653.47;4936367;29;20077;-56
2023/12/10 00:39:22;;;;;;;14.82;5.18;;;;;;;-9.22;62.67;100673.09;4923287;29;20050;-54
2023/12/10 00:41:47;;;;;;;13.52;5.15;;;;;;;-9.06;61.89;100708.50;4948408;29;20050;-57
2023/12/10 00:44:14;;;;;;;14.85;5.43;;;;;;;-9.55;62.21;100627.50;4938659;28;20531;-56
2023/12/10 00:46:39;;;;;;;16.98;4.75;;;;;;;-9.03;62.00;100716.22;4931468;29;20463;-60
2023/12/10 00:49:05;;;;;;;17.17;5.60;;;;;;;-9.03;62.55;100722.13;4918707;29;20042;-56
2023/12/10 00:51:31;;;;;;;14.05;4.90;;;;;;;-9.12;62.72;100716.56;4933337;29;20137;-55
2023/12/10 00:53:57;;;;;;;17.58;4.40;;;;;;;-9.12;62.68;100716.56;4945404;28;20522;-55
2023/12/10 00:56:23;;;;;;;14.60;6.22;;;;;;;-9.17;62.53;100732.16;4934303;29;20055;-54
2023/12/10 00:58:49;;;;;;;15.55;5.57;;;;;;;-9.10;63.31;100730.09;4937301;29;20043;-57
2023/12/10 01:01:15;;;;;;;15.75;5.50;;;;;;;-9.02;63.13;100730.56;4949216;28;20368;-57
2023/12/10 01:03:41;;;;;;;12.13;4.78;;;;;;;-9.05;63.26;100721.16;4954056;28;20055;-54
2023/12/10 01:06:08;;;;;;;14.73;5.28;;;;;;;-9.01;63.26;100727.28;4939444;29;20062;-57
2023/12/10 01:08:33;;;;;;;25.33;6.07;;;;;;;-9.05;62.61;100727.84;4941851;28;20451;-57
2023/12/10 01:10:59;;;;;;;14.20;4.05;;;;;;;-9.23;63.21;100686.47;4949608;28;20050;-56
2023/12/10 01:13:25;;;;;;;15.70;5.50;;;;;;;-9.19;62.77;100703.50;4947662;29;20563;-57
2023/12/10 01:15:51;;;;;;;17.30;6.45;;;;;;;-9.15;62.97;100692.81;4948260;29;20091;-58
2023/12/10 01:18:18;;;;;;;15.95;5.43;;;;;;;-9.06;63.76;100679.16;4938333;28;20119;-56
2023/12/10 01:20:44;;;;;;;14.63;5.68;;;;;;;-9.30;63.40;100634.88;4954865;28;20055;-55
2023/12/10 01:23:09;;;;;;;15.65;5.63;;;;;;;-9.03;63.21;100686.00;4919858;29;20063;-57
2023/12/10 01:25:35;;;;;;;16.88;5.50;;;;;;;-9.11;64.07;100667.06;4947163;29;20058;-58
2023/12/10 01:28:01;;;;;;;11.77;5.03;;;;;;;-9.00;63.95;100671.94;4948061;28;20153;-57
2023/12/10 01:30:27;;;;;;;24.50;5.88;;;;;;;-8.92;63.49;100676.56;4929213;29;20411;-59
2023/12/10 01:32:57;;;;;;;13.60;5.80;;;;;;;-8.94;63.44;100678.09;4947012;28;20070;-55
2023/12/10 01:35:23;;;;;;;19.35;6.25;;;;;;;-8.98;63.78;100667.00;4921518;29;20511;-56
2023/12/10 01:37:49;;;;;;;12.18;5.30;;;;;;;-9.00;62.96;100674.44;4935659;29;20071;-58
2023/12/10 01:40:15;;;;;;;18.55;5.97;;;;;;;-9.18;62.78;100663.31;4947971;28;20054;-58
2023/12/10 01:42:42;;;;;;;14.05;5.03;;;;;;;-9.10;62.84;100663.75;4930874;29;20047;-56
2023/12/10 01:45:08;;;;;;;13.70;5.47;;;;;;;-9.28;62.99;100629.94;4928474;29;20084;-52
2023/12/10 01:47:35;;;;;;;13.32;4.70;;;;;;;-9.13;63.33;100661.94;4929508;29;20043;-56
2023/12/10 01:50:06;;;;;;;15.27;6.30;;;;;;;-9.16;63.05;100659.22;4936526;28;20047;-57
2023/12/10 01:52:34;;;;;;;17.05;5.63;;;;;;;-9.08;62.81;100655.50;4931397;29;20690;-58
2023/12/10 01:55:01;;;;;;;11.63;4.75;;;;;;;-9.14;62.78;100656.78;4931213;29;20137;-59
2023/12/10 01:57:30;;;;;;;14.10;5.85;;;;;;;-9.27;63.01;100655.22;4940412;29;20095;-56
2023/12/10 01:59:57;;;;;;;19.17;5.82;;;;;;;-9.32;62.67;100649.03;4930913;29;20050;-56
2023/12/10 02:02:24;;;;;;;12.02;4.78;;;;;;;-9.36;62.72;100653.78;4939403;29;20129;-53
2023/12/10 02:04:53;;;;;;;19.27;5.50;;;;;;;-9.34;63.49;100644.69;4921266;29;20049;-56
2023/12/10 02:07:22;;;;;;;13.43;4.93;;;;;;;-9.29;63.46;100645.81;4951097;28;20511;-56
2023/12/10 02:09:49;;;;;;;17.42;5.15;;;;;;;-9.37;63.84;100654.56;4939915;29;20043;-54
2023/12/10 02:12:16;;;;;;;12.77;4.95;;;;;;;-9.28;63.06;100655.13;4926129;29;20537;-56
2023/12/10 02:14:42;;;;;;;13.05;4.00;;;;;;;-9.22;63.72;100663.03;4941241;29;20102;-55
2023/12/10 02:17:08;;;;;;;12.35;4.90;;;;;;;-9.65;63.62;100621.84;4944398;28;20043;-54
2023/12/10 02:19:35;;;;;;;17.95;5.70;;;;;;;-9.69;64.10;100632.50;4952504;28;20489;-55
2023/12/10 02:22:02;;;;;;;12.70;5.65;;;;;;;-9.47;64.08;100674.13;4950575;28;20039;-58
2023/12/10 02:24:39;;;;;;;22.88;5.97;;;;;;;-9.52;63.83;100665.44;4921158;28;20094;-55
2023/12/10 02:27:05;;;;;;;20.10;6.43;;;;;;;-9.45;64.75;100664.16;4932715;29;20105;-54
2023/12/10 02:29:31;;;;;;;18.15;5.47;;;;;;;-9.39;64.46;100654.47;4942988;29;20102;-54
2023/12/10 02:31:57;;;;;;;15.25;5.40;;;;;;;-9.26;64.62;100668.69;4929301;29;20058;-57
2023/12/10 02:34:24;;;;;;;17.90;5.82;;;;;;;-9.17;64.40;100671.75;4941567;28;20041;-53
2023/12/10 02:36:50;;;;;;;16.58;5.85;;;;;;;-9.29;64.03;100666.84;4935199;29;20427;-52
2023/12/10 02:39:16;;;;;;;12.93;5.35;;;;;;;-9.25;64.55;100666.22;4953277;29;20043;-56
2023/12/10 02:41:42;;;;;;;12.00;4.75;;;;;;;-9.17;64.57;100644.03;4932419;29;20043;-55
2023/12/10 02:44:08;;;;;;;15.15;4.93;;;;;;;-9.12;64.57;100641.00;4932379;29;20050;-55
2023/12/10 02:46:34;;;;;;;10.88;4.50;;;;;;;-9.12;65.05;100633.47;4950485;28;20043;-54
2023/12/10 02:49:00;;;;;;;14.73;5.45;;;;;;;-9.10;64.69;100658.72;4935382;29;20046;-50
2023/12/10 02:51:25;;;;;;;16.15;5.50;;;;;;;-9.11;64.05;100649.44;4934867;29;20043;-58
2023/12/10 02:53:52;;;;;;;15.85;5.07;;;;;;;-9.12;63.86;100655.25;4912560;29;20566;-56
2023/12/10 02:56:17;;;;;;;13.93;5.25;;;;;;;-9.17;64.37;100651.59;4947528;28;20043;-56
2023/12/10 02:58:43;;;;;;;11.80;4.75;;;;;;;-9.21;64.16;100632.91;4951232;28;20051;-53
2023/12/10 03:01:10;;;;;;;14.88;5.15;;;;;;;-9.21;64.19;100649.69;4935752;29;20488;-54
2023/12/10 03:03:36;;;;;;;15.75;6.03;;;;;;;-9.36;64.77;100606.81;4937560;29;20051;-53
2023/12/10 03:06:02;;;;;;;13.32;4.25;;;;;;;-9.14;63.94;100634.13;4938274;28;20416;-54
2023/12/10 03:08:28;;;;;;;15.65;5.40;;;;;;;-9.12;64.39;100635.09;4918027;29;20138;-53
2023/12/10 03:10:54;;;;;;;10.18;4.63;;;;;;;-9.11;64.64;100634.31;4931096;29;20043;-56
2023/12/10 03:13:20;;;;;;;14.88;6.05;;;;;;;-9.06;65.22;100631.31;4935657;29;20105;-56
2023/12/10 03:15:46;;;;;;;16.40;4.43;;;;;;;-8.98;64.26;100629.22;4921784;29;20039;-54
2023/12/10 03:18:11;;;;;;;13.68;4.95;;;;;;;-8.96;64.90;100634.34;4932586;29;20516;-54
2023/12/10 03:20:37;;;;;;;12.63;5.25;;;;;;;-9.09;64.66;100626.06;4919188;29;20050;-53
2023/12/10 03:23:03;;;;;;;14.48;4.80;;;;;;;-9.31;64.42;100575.22;4947649;29;20126;-53
2023/12/10 03:25:29;;;;;;;16.85;4.93;;;;;;;-9.15;64.91;100627.34;4938264;28;20044;-52
2023/12/10 03:27:55;;;;;;;12.90;4.72;;;;;;;-9.13;64.48;100624.16;4948365;28;20511;-51
2023/12/10 03:30:21;;;;;;;14.20;5.00;;;;;;;-9.19;64.97;100627.94;4949115;29;20507;-58
2023/12/10 03:32:46;;;;;;;14.60;5.60;;;;;;;-9.17;65.41;100627.28;4947728;29;20046;-53
2023/12/10 03:35:12;;;;;;;11.35;5.03;;;;;;;-9.06;64.95;100620.34;4920313;28;20447;-52
2023/12/10 03:37:38;;;;;;;12.90;4.70;;;;;;;-9.25;65.01;100579.75;4948829;29;20044;-53
2023/12/10 03:40:04;;;;;;;14.93;5.55;;;;;;;-8.90;64.99;100627.16;4916545;29;20063;-52
2023/12/10 03:42:31;;;;;;;15.05;5.85;;;;;;;-8.94;64.82;100623.56;4949861;28;20044;-57
2023/12/10 03:44:57;;;;;;;15.18;4.97;;;;;;;-8.91;65.11;100622.88;4936558;29;20062;-53
2023/12/10 03:47:23;;;;;;;18.45;4.45;;;;;;;-8.87;64.99;100628.19;4949511;28;20055;-54
2023/12/10 03:49:49;;;;;;;21.35;4.78;;;;;;;-8.95;64.97;100644.53;4938591;29;20043;-55
2023/12/10 03:52:15;;;;;;;14.05;5.25;;;;;;;-8.92;65.19;100649.72;4936916;29;20435;-54
2023/12/10 03:54:41;;;;;;;15.07;4.60;;;;;;;-9.00;64.54;100648.38;4948337;29;20535;-52
2023/12/10 03:57:07;;;;;;;13.75;5.78;;;;;;;-8.96;65.32;100659.53;4935298;29;20852;-57
2023/12/10 03:59:33;;;;;;;12.30;4.80;;;;;;;-9.03;64.85;100643.19;4932788;29;20047;-52
2023/12/10 04:01:59;;;;;;;12.07;5.43;;;;;;;-9.51;64.95;100543.00;4934292;29;20122;-51
2023/12/10 04:04:25;;;;;;;16.65;5.25;;;;;;;-8.97;65.17;100627.56;4950384;28;20150;-56
2023/12/10 04:06:51;;;;;;;15.98;4.93;;;;;;;-8.89;64.52;100623.81;4949159;28;20082;-54
2023/12/10 04:09:17;;;;;;;12.68;5.47;;;;;;;-8.89;64.89;100617.13;4949826;29;20150;-55
2023/12/10 04:11:42;;;;;;;13.57;5.18;;;;;;;-8.85;65.46;100620.72;4949152;29;20982;-55
2023/12/10 04:14:09;;;;;;;18.75;6.25;;;;;;;-8.79;65.56;100616.88;4949210;29;20032;-53
2023/12/10 04:16:36;;;;;;;15.35;5.30;;;;;;;-8.90;65.22;100582.69;4940507;28;20049;-57
2023/12/10 04:19:03;;;;;;;12.90;4.82;;;;;;;-8.65;65.61;100615.16;4905029;29;20035;-57
2023/12/10 04:21:29;;;;;;;15.27;5.65;;;;;;;-8.98;65.17;100572.91;4948075;28;20043;-55
2023/12/10 04:23:55;;;;;;;11.35;4.75;;;;;;;-8.95;65.37;100600.81;4948913;29;20046;-54
2023/12/10 04:26:21;;;;;;;18.63;5.22;;;;;;;-9.01;65.42;100594.66;4936338;28;20150;-58
2023/12/10 04:28:48;;;;;;;12.45;5.15;;;;;;;-8.75;65.68;100622.97;4935853;28;20065;-57
2023/12/10 04:31:14;;;;;;;13.27;4.85;;;;;;;-8.74;65.57;100622.22;4936179;29;20511;-54
2023/12/10 04:33:47;;;;;;;14.55;5.43;;;;;;;-8.79;65.24;100619.41;4948016;29;20035;-58
2023/12/10 04:36:13;;;;;;;11.55;4.13;;;;;;;-8.77;65.95;100624.53;4918411;28;20146;-56
2023/12/10 04:38:39;;;;;;;14.10;5.05;;;;;;;-8.79;64.97;100616.03;4937901;29;20039;-56
2023/12/10 04:41:05;;;;;;;13.13;5.28;;;;;;;-8.77;65.81;100625.41;4950197;29;20582;-54
2023/12/10 04:43:31;;;;;;;11.32;4.53;;;;;;;-8.82;65.14;100626.78;4948291;29;20043;-56
2023/12/10 04:45:58;;;;;;;13.18;5.63;;;;;;;-8.86;65.00;100626.53;4930457;29;20101;-55
2023/12/10 04:48:24;;;;;;;14.82;5.35;;;;;;;-8.91;65.93;100613.69;4932828;29;20047;-56
2023/12/10 04:50:51;;;;;;;14.07;5.07;;;;;;;-8.85;66.28;100634.19;4950596;29;20404;-55
2023/12/10 04:53:17;;;;;;;12.18;4.72;;;;;;;-8.81;65.42;100632.72;4948240;28;20075;-53
2023/12/10 04:55:43;;;;;;;13.40;3.85;;;;;;;-8.81;66.38;100633.56;4934095;29;20936;-57
2023/12/10 04:58:09;;;;;;;11.88;4.97;;;;;;;-8.76;66.44;100633.84;4947749;28;20072;-54
2023/12/10 05:00:35;;;;;;;11.43;4.93;;;;;;;-8.98;66.22;100600.63;4947305;28;20507;-56
2023/12/10 05:03:01;;;;;;;19.05;6.20;;;;;;;-8.80;66.03;100636.97;4949595;29;20058;-54
2023/12/10 05:05:27;;;;;;;15.00;5.07;;;;;;;-8.82;66.08;100641.91;4931493;29;20035;-53
2023/12/10 05:07:53;;;;;;;12.73;5.05;;;;;;;-8.89;65.82;100618.78;4930450;29;20051;-57
2023/12/10 05:10:19;;;;;;;14.35;5.28;;;;;;;-9.05;66.50;100579.25;4948221;28;20098;-54
2023/12/10 05:12:45;;;;;;;14.73;5.40;;;;;;;-9.06;66.58;100582.56;4931359;29;20529;-56
2023/12/10 05:15:12;;;;;;;14.77;4.93;;;;;;;-8.60;66.65;100638.97;4934688;29;20039;-53
2023/12/10 05:17:37;;;;;;;17.17;5.20;;;;;;;-8.52;66.66;100635.22;4950900;28;20571;-55
2023/12/10 05:20:05;;;;;;;17.83;5.10;;;;;;;-8.43;66.20;100629.84;4916796;29;20048;-54
2023/12/10 05:22:31;;;;;;;15.00;5.38;;;;;;;-8.38;65.78;100618.34;4921111;29;20050;-51
2023/12/10 05:24:57;;;;;;;15.80;5.43;;;;;;;-8.43;65.94;100617.22;4947289;29;20039;-55
2023/12/10 05:27:22;;;;;;;10.35;4.47;;;;;;;-8.70;65.79;100601.44;4949146;28;20149;-54
2023/12/10 05:29:49;;;;;;;17.40;5.72;;;;;;;-8.54;65.91;100618.28;4948652;28;20122;-55
2023/12/10 05:32:15;;;;;;;13.70;5.32;;;;;;;-9.05;65.66;100531.41;4935833;29;20066;-57
2023/12/10 05:34:40;;;;;;;12.85;5.20;;;;;;;-8.60;65.48;100616.28;4945292;29;20095;-56
2023/12/10 05:37:08;;;;;;;14.70;5.32;;;;;;;-8.80;65.89;100586.59;4936802;28;20066;-53
2023/12/10 05:39:34;;;;;;;10.38;4.25;;;;;;;-8.70;65.79;100622.47;4921155;29;20043;-56
2023/12/10 05:42:00;;;;;;;16.27;5.78;;;;;;;-8.77;65.34;100625.41;4921225;29;20569;-56
2023/12/10 05:44:26;;;;;;;13.48;5.43;;;;;;;-8.90;65.24;100612.91;4933814;29;20073;-56
2023/12/10 05:46:52;;;;;;;16.85;5.38;;;;;;;-9.14;65.69;100571.19;4936283;29;20047;-55
2023/12/10 05:49:19;;;;;;;10.13;4.53;;;;;;;-8.91;65.30;100615.31;4938502;29;20038;-55
2023/12/10 05:51:44;;;;;;;11.40;5.18;;;;;;;-9.05;65.78;100610.34;4935636;29;20511;-56
2023/12/10 05:54:11;;;;;;;16.08;5.10;;;;;;;-9.28;65.97;100555.28;4955683;28;20047;-58
2023/12/10 05:56:37;;;;;;;10.55;4.40;;;;;;;-9.14;65.77;100563.63;4926258;29;20039;-56
2023/12/10 05:59:03;;;;;;;16.08;5.50;;;;;;;-8.91;66.30;100605.25;4954210;28;20090;-57
2023/12/10 06:01:29;;;;;;;17.63;4.93;;;;;;;-8.89;66.36;100603.66;4950569;29;20070;-52
2023/12/10 06:03:55;;;;;;;14.55;5.38;;;;;;;-8.81;66.37;100605.00;4921217;29;20131;-54
2023/12/10 06:06:21;;;;;;;14.27;5.85;;;;;;;-8.82;66.26;100599.09;4950501;29;20058;-54
2023/12/10 06:08:46;;;;;;;17.27;5.32;;;;;;;-9.02;65.83;100560.16;4937026;29;20150;-55
2023/12/10 06:11:12;;;;;;;18.48;6.00;;;;;;;-8.72;65.68;100606.38;4936708;29;20039;-58
2023/12/10 06:13:38;;;;;;;11.38;5.18;;;;;;;-8.91;65.83;100585.09;4923245;29;20035;-55
2023/12/10 06:16:05;;;;;;;13.07;5.50;;;;;;;-8.93;65.55;100574.06;4951231;29;20054;-55
2023/12/10 06:18:30;;;;;;;11.98;4.53;;;;;;;-8.68;65.74;100617.50;4915201;29;20047;-58
2023/12/10 06:20:56;;;;;;;13.05;5.35;;;;;;;-9.15;65.70;100519.06;4934724;28;20043;-57
2023/12/10 06:23:22;;;;;;;14.95;5.32;;;;;;;-8.63;65.71;100599.31;4937871;29;20507;-56
2023/12/10 06:25:48;;;;;;;10.13;5.15;;;;;;;-8.57;66.00;100608.88;4954237;28;20838;-58
2023/12/10 06:28:14;;;;;;;9.88;5.30;;;;;;;-8.67;65.15;100606.63;4938118;28;20047;-56
2023/12/10 06:30:40;;;;;;;9.68;3.95;;;;;;;-8.64;65.82;100601.78;4950823;29;20035;-57
2023/12/10 06:33:06;;;;;;;13.32;4.70;;;;;;;-9.04;65.80;100545.72;4933382;29;20143;-58
2023/12/10 06:35:31;;;;;;;14.60;6.32;;;;;;;-8.72;65.32;100616.47;4938110;29;20043;-58
2023/12/10 06:37:57;;;;;;;15.38;5.60;;;;;;;-8.69;65.82;100619.13;4949845;28;20043;-55
2023/12/10 06:40:23;;;;;;;13.52;5.35;;;;;;;-8.63;65.64;100618.63;4954905;28;20137;-55
2023/12/10 06:42:49;;;;;;;18.70;6.65;;;;;;;-8.64;66.01;100611.88;4949876;29;20504;-54
2023/12/10 06:45:15;;;;;;;16.67;5.78;;;;;;;-8.57;65.99;100611.41;4950609;28;20053;-52
2023/12/10 06:47:42;;;;;;;18.70;6.13;;;;;;;-8.54;65.60;100614.13;4936999;29;20063;-56
2023/12/10 06:50:08;;;;;;;15.00;5.20;;;;;;;-8.54;65.58;100608.19;4932862;29;20554;-58
2023/12/10 06:52:34;;;;;;;18.88;5.15;;;;;;;-8.52;66.03;100614.19;4918079;29;20638;-59
2023/12/10 06:55:00;;;;;;;12.48;4.80;;;;;;;-8.43;66.02;100618.09;4935537;29;20133;-58
2023/12/10 06:57:26;;;;;;;15.52;5.07;;;;;;;-8.65;66.18;100575.72;4933454;29;20042;-57
2023/12/10 06:59:52;;;;;;;14.50;5.07;;;;;;;-8.34;65.94;100626.19;4934639;29;20074;-58
2023/12/10 07:02:18;;;;;;;9.68;4.55;;;;;;;-8.29;65.71;100617.19;4933270;29;20066;-57
2023/12/10 07:04:44;;;;;;;16.17;5.22;;;;;;;-8.27;65.63;100629.88;4935522;29;20051;-54
2023/12/10 07:07:10;;;;;;;11.90;4.85;;;;;;;-8.34;65.27;100620.25;4937120;29;20080;-59
2023/12/10 07:09:36;;;;;;;12.35;4.38;;;;;;;-8.33;66.01;100630.44;4951710;28;20146;-55
2023/12/10 07:12:02;;;;;;;12.45;4.82;;;;;;;-8.34;65.49;100622.78;4950480;28;20051;-57
2023/12/10 07:14:28;;;;;;;12.65;4.85;;;;;;;-8.30;65.80;100624.69;4939248;29;20042;-57
2023/12/10 07:16:54;;;;;;;16.98;5.53;;;;;;;-8.19;65.52;100626.13;4936904;29;20051;-56
2023/12/10 07:19:19;;;;;;;17.27;5.18;;;;;;;-8.37;65.06;100579.75;4948951;28;20134;-55
2023/12/10 07:21:45;;;;;;;16.60;5.13;;;;;;;-8.18;65.37;100626.22;4950245;28;20431;-55
2023/12/10 07:24:11;;;;;;;9.68;4.40;;;;;;;-8.11;65.34;100626.53;4951942;28;20042;-57
2023/12/10 07:26:37;;;;;;;9.65;4.40;;;;;;;-8.32;64.95;100596.00;4935406;29;20154;-58
2023/12/10 07:29:03;;;;;;;15.85;4.82;;;;;;;-8.04;65.15;100621.91;4952782;28;20040;-55
2023/12/10 07:31:30;;;;;;;9.95;4.03;;;;;;;-8.07;65.15;100614.19;4939111;28;20097;-56
2023/12/10 07:33:55;;;;;;;14.02;4.57;;;;;;;-8.15;65.22;100620.44;4948987;29;20760;-56
2023/12/10 07:36:21;;;;;;;11.20;4.75;;;;;;;-8.16;65.53;100629.66;4949771;29;20146;-58
2023/12/10 07:38:47;;;;;;;14.27;4.93;;;;;;;-8.07;65.38;100626.78;4948952;29;20427;-57
2023/12/10 07:41:13;;;;;;;16.65;5.00;;;;;;;-8.06;65.06;100625.13;4934966;28;20055;-54
2023/12/10 07:43:39;;;;;;;10.60;4.10;;;;;;;-8.14;64.80;100612.97;4948681;29;20090;-57
2023/12/10 07:46:05;;;;;;;15.95;4.95;;;;;;;-8.01;64.48;100608.59;4935690;29;20051;-58
2023/12/10 07:48:33;;;;;;;17.52;5.15;;;;;;;-8.15;64.81;100573.38;4916403;29;20410;-56
2023/12/10 07:50:59;;;;;;;18.67;4.10;;;;;;;-7.88;64.44;100627.00;4949702;28;20530;-59
2023/12/10 07:53:25;;;;;;;13.60;4.63;;;;;;;-8.11;64.43;100578.63;4937675;29;20032;-58
2023/12/10 07:55:51;;;;;;;14.50;5.13;;;;;;;-7.87;63.88;100626.22;4951038;28;20051;-58
2023/12/10 07:58:17;;;;;;;13.98;4.65;;;;;;;-7.93;64.64;100608.22;4949448;29;20447;-55
2023/12/10 08:00:47;;;;;;;14.23;4.35;;;;;;;-7.77;63.97;100615.81;4953792;28;20472;-53
2023/12/10 08:03:14;;;;;;;16.48;6.03;;;;;;;-7.74;63.52;100618.50;4948900;28;20050;-54
2023/12/10 08:05:40;;;;;;;14.93;5.28;;;;;;;-7.67;63.72;100613.78;4938371;29;20458;-55
2023/12/10 08:08:07;;;;;;;20.17;6.07;;;;;;;-7.78;63.35;100576.22;4939030;29;20043;-56
2023/12/10 08:10:33;;;;;;;18.75;4.65;;;;;;;-7.59;63.59;100608.34;4936406;29;20049;-56
2023/12/10 08:12:59;;;;;;;14.98;4.72;;;;;;;-7.58;63.44;100612.59;4949038;28;20031;-54
2023/12/10 08:15:25;;;;;;;19.05;5.20;;;;;;;-7.57;63.48;100615.97;4948699;28;20534;-55
2023/12/10 08:17:52;;;;;;;20.52;6.35;;;;;;;-7.53;63.71;100622.94;4949825;28;20048;-55
2023/12/10 08:20:18;;;;;;;12.00;4.65;;;;;;;-7.60;62.88;100618.38;4954220;28;20042;-55
2023/12/10 08:22:44;;;;;;;12.57;4.95;;;;;;;-7.64;62.91;100626.56;4939256;29;20507;-57
2023/12/10 08:25:10;;;;;;;11.15;5.13;;;;;;;-7.74;62.84;100623.53;4937904;29;20047;-55
2023/12/10 08:27:36;;;;;;;16.42;5.38;;;;;;;-7.76;63.04;100614.16;4948665;29;20134;-54
2023/12/10 08:30:02;;;;;;;14.50;5.72;;;;;;;-7.88;63.00;100568.09;4948409;29;20134;-55
2023/12/10 08:32:31;;;;;;;18.45;4.60;;;;;;;-7.49;62.84;100609.69;4948430;28;20039;-57
2023/12/10 08:34:56;;;;;;;12.93;4.50;;;;;;;-7.38;63.01;100604.38;4948964;29;20066;-58
2023/12/10 08:37:22;;;;;;;14.93;4.60;;;;;;;-7.56;63.53;100600.94;4949057;28;20051;-54
2023/12/10 08:39:49;;;;;;;15.30;5.47;;;;;;;-7.43;63.39;100600.75;4937167;29;20519;-59
2023/12/10 08:42:16;;;;;;;8.90;3.63;;;;;;;-7.55;62.80;100553.81;4948097;29;20483;-57
2023/12/10 08:44:42;;;;;;;13.20;4.40;;;;;;;-7.38;62.70;100591.75;4935153;29;20098;-54
2023/12/10 08:47:08;;;;;;;17.20;4.97;;;;;;;-7.48;62.81;100581.09;4948482;29;20047;-58
2023/12/10 08:49:33;;;;;;;17.00;5.55;;;;;;;-7.58;62.41;100586.47;4947504;28;20043;-55
2023/12/10 08:51:59;;;;;;;16.25;5.43;;;;;;;-7.57;62.66;100588.22;4934533;29;20066;-59
2023/12/10 08:54:25;;;;;;;11.25;3.70;;;;;;;-7.46;63.10;100597.22;4938487;28;20047;-58
2023/12/10 08:56:51;;;;;;;12.68;4.72;;;;;;;-7.52;63.01;100591.84;4947877;29;20050;-57
2023/12/10 08:59:17;;;;;;;15.27;5.18;;;;;;;-7.52;63.21;100600.28;4949232;29;20066;-54
2023/12/10 09:01:43;;;;;;;17.13;5.43;;;;;;;-7.61;63.27;100599.81;4929449;29;20099;-56
2023/12/10 09:04:09;;;;;;;11.60;4.40;;;;;;;-7.89;63.01;100549.53;4947887;29;20039;-56
2023/12/10 09:06:35;;;;;;;13.93;4.78;;;;;;;-7.82;62.97;100599.56;4949736;28;20047;-56
2023/12/10 09:09:01;;;;;;;13.15;4.85;;;;;;;-7.81;63.49;100608.00;4948982;28;20102;-59
2023/12/10 09:11:27;;;;;;;8.63;3.47;;;;;;;-7.93;62.54;100597.25;4950144;28;20047;-55
2023/12/10 09:13:53;;;;;;;14.63;4.95;;;;;;;-8.02;62.87;100589.19;4949257;28;20039;-57
2023/12/10 09:16:20;;;;;;;15.13;5.68;;;;;;;-8.02;62.96;100604.34;4933258;29;20053;-59
2023/12/10 09:18:46;;;;;;;22.60;5.50;;;;;;;-7.82;62.89;100608.78;4931397;29;20499;-59
2023/12/10 09:21:12;;;;;;;8.85;5.35;;;;;;;-7.74;62.78;100617.63;4930678;29;20047;-59
2023/12/10 09:23:37;;;;;;;14.13;5.70;;;;;;;-7.74;62.55;100610.91;4930665;29;20050;-58
2023/12/10 09:26:03;;;;;;;12.40;5.47;;;;;;;-7.84;62.85;100560.75;4948812;28;20057;-59
2023/12/10 09:28:29;;;;;;;13.13;4.78;;;;;;;-7.43;62.84;100600.75;4946518;29;20043;-58
2023/12/10 09:30:56;;;;;;;14.38;5.72;;;;;;;-7.43;63.05;100594.88;4948983;28;20422;-60
2023/12/10 09:33:22;;;;;;;11.77;4.95;;;;;;;-7.50;62.54;100591.16;4938431;29;20439;-58
2023/12/10 09:35:48;;;;;;;15.70;4.70;;;;;;;-7.66;62.79;100550.75;4952221;28;20066;-61
2023/12/10 09:38:14;;;;;;;16.10;5.53;;;;;;;-7.23;63.16;100599.28;4945527;29;20093;-61
2023/12/10 09:40:40;;;;;;;24.95;6.65;;;;;;;-7.13;63.03;100600.59;4929961;29;20035;-57
2023/12/10 09:43:06;;;;;;;13.98;5.85;;;;;;;-7.09;63.10;100569.63;4937093;29;20059;-55
2023/12/10 09:45:32;;;;;;;14.05;5.35;;;;;;;-6.90;62.97;100574.81;4934002;29;20069;-59
2023/12/10 09:47:59;;;;;;;14.65;4.30;;;;;;;-6.81;63.04;100567.69;4945549;29;20047;-58
2023/12/10 09:50:25;;;;;;;14.90;4.30;;;;;;;-6.75;62.87;100573.03;4920466;29;20482;-62
2023/12/10 09:52:51;;;;;;;16.90;5.07;;;;;;;-6.67;63.07;100571.75;4950178;29;20042;-56
2023/12/10 09:55:17;;;;;;;14.60;5.65;;;;;;;-6.61;63.03;100574.56;4936324;29;20511;-62
2023/12/10 09:57:43;;;;;;;10.40;4.80;;;;;;;-6.54;63.19;100586.69;4914534;29;20050;-58
2023/12/10 10:00:10;;;;;;;14.95;4.88;;;;;;;-6.49;62.81;100579.34;4950378;28;20055;-62
2023/12/10 10:02:36;;;;;;;13.48;5.60;;;;;;;-6.47;62.78;100590.41;4948655;28;20066;-58
2023/12/10 10:05:04;;;;;;;11.27;3.35;;;;;;;-6.41;62.72;100580.56;4933350;29;20047;-62
2023/12/10 10:07:30;;;;;;;17.80;5.13;;;;;;;-6.48;62.86;100576.88;4918753;29;20065;-59
2023/12/10 10:09:56;;;;;;;14.25;4.43;;;;;;;-6.54;62.83;100580.81;4914552;28;20602;-64
2023/12/10 10:12:27;;;;;;;23.35;5.38;;;;;;;-6.91;62.54;100545.28;4934181;29;20046;-62
2023/12/10 10:14:57;;;;;;;11.88;4.65;;;;;;;-6.98;62.96;100526.44;4947941;29;20078;-62
2023/12/10 10:17:27;;;;;;;10.88;4.70;;;;;;;-6.70;62.99;100553.91;4935971;29;20531;-60
2023/12/10 10:19:54;;;;;;;10.75;4.55;;;;;;;-6.71;62.71;100534.47;4951493;29;20138;-60
2023/12/10 10:22:24;;;;;;;15.35;5.47;;;;;;;-6.59;63.67;100546.81;4937868;29;20066;-61
2023/12/10 10:24:53;;;;;;;;;;;;;;;-6.51;63.79;100543.88;4938310;29;20039;-63
2023/12/10 10:27:20;;;;;;;19.40;4.90;;;;;;;-6.55;63.52;100551.25;4901211;29;20016;-63
2023/12/10 10:29:48;;;;;;;19.55;4.72;;;;;;;-6.50;63.83;100540.56;4949395;29;20426;-60
2023/12/10 10:32:16;;;;;;;14.02;4.80;;;;;;;-6.74;63.75;100519.13;4934178;29;20055;-59
2023/12/10 10:34:44;;;;;;;15.02;5.57;;;;;;;-6.68;63.29;100531.22;4945816;29;20043;-60
2023/12/10 10:37:10;;;;;;;16.40;6.05;;;;;;;-6.56;63.35;100549.50;4932656;29;20547;-57
2023/12/10 10:39:37;;;;;;;9.00;4.35;;;;;;;-6.53;63.57;100542.91;4917761;29;20082;-59
2023/12/10 10:42:07;;;;;;;11.27;4.47;;;;;;;-6.53;63.29;100526.88;4934055;29;20070;-62
2023/12/10 10:44:35;;;;;;;10.90;4.80;;;;;;;-6.51;63.07;100537.94;4917073;29;20487;-58
2023/12/10 10:47:02;;;;;;;17.50;5.20;;;;;;;-6.53;63.62;100547.09;4933789;29;20137;-62
2023/12/10 10:49:28;;;;;;;10.55;4.97;;;;;;;-6.43;63.49;100544.22;4906123;29;20090;-63
2023/12/10 10:51:58;;;;;;;17.67;5.00;;;;;;;-6.37;63.95;100553.75;4934278;29;20051;-63
2023/12/10 10:54:24;;;;;;;12.38;4.45;;;;;;;-6.39;63.09;100542.72;4915267;29;20042;-62
2023/12/10 10:56:50;;;;;;;12.32;5.35;;;;;;;-6.62;63.55;100511.28;4929588;29;20124;-59
2023/12/10 10:59:32;;;;;;;17.13;5.20;;;;;;;-6.36;63.56;100542.84;4949698;29;20066;-62
2023/12/10 11:02:00;;;;;;;14.77;4.88;;;;;;;-6.42;62.72;100540.88;4950394;29;20288;-62
2023/12/10 11:04:37;;;;;;;14.68;5.28;;;;;;;-6.44;62.82;100545.88;4905596;29;20043;-63
2023/12/10 11:07:04;;;;;;;14.93;4.10;;;;;;;-6.67;63.04;100492.50;4949173;28;20074;-63
2023/12/10 11:09:31;;;;;;;18.50;6.03;;;;;;;-6.58;62.58;100546.03;4933461;29;20043;-61
2023/12/10 11:11:58;;;;;;;17.58;5.70;;;;;;;-6.63;63.19;100545.81;4949784;28;20044;-61